createdAt,value
2022-09-23T00:02:22.578Z,12.00
2022-09-23T00:05:11.348Z,13.10
2022-09-23T00:07:59.370Z,10.43
2022-09-23T00:10:47.913Z,12.87
2022-09-23T00:13:36.985Z,13.37
2022-09-23T00:16:26.834Z,13.03
2022-09-23T00:19:14.169Z,13.53
2022-09-23T00:22:01.483Z,10.47
2022-09-23T00:24:48.734Z,11.50
2022-09-23T00:27:37.640Z,13.57
2022-09-23T00:30:24.868Z,14.13
2022-09-23T00:33:11.947Z,13.30
2022-09-23T00:36:00.415Z,11.73
2022-09-23T00:38:47.829Z,15.83
2022-09-23T00:41:35.592Z,11.63
2022-09-23T00:44:49.966Z,13.97
2022-09-23T00:47:43.959Z,13.43
2022-09-23T00:50:35.083Z,12.60
2022-09-23T00:53:27.532Z,12.80
2022-09-23T00:56:15.747Z,14.07
2022-09-23T00:59:03.795Z,12.00
2022-09-23T01:01:54.667Z,12.70
2022-09-23T01:04:42.405Z,14.43
2022-09-23T01:07:30.056Z,14.57
2022-09-23T01:10:18.925Z,12.17
2022-09-23T01:13:15.927Z,12.37
2022-09-23T01:16:08.469Z,14.93
2022-09-23T01:19:06.362Z,15.27
2022-09-23T01:22:01.242Z,12.33
2022-09-23T01:24:52.996Z,14.93
2022-09-23T01:27:52.678Z,12.07
2022-09-23T01:30:48.784Z,15.87
2022-09-23T01:33:41.354Z,12.87
2022-09-23T01:36:36.230Z,17.63
2022-09-23T01:39:33.290Z,12.73
2022-09-23T01:42:29.495Z,14.13
2022-09-23T01:45:23.947Z,14.50
2022-09-23T01:48:18.232Z,16.33
2022-09-23T01:51:09.530Z,14.07
2022-09-23T01:54:04.345Z,13.67
2022-09-23T01:56:55.571Z,11.97
2022-09-23T01:59:48.055Z,13.43
2022-09-23T02:02:42.048Z,12.57
2022-09-23T02:05:34.458Z,14.70
2022-09-23T02:08:26.196Z,12.27
2022-09-23T02:11:15.904Z,12.73
2022-09-23T02:14:08.502Z,13.40
2022-09-23T02:16:58.479Z,12.43
2022-09-23T02:19:51.637Z,10.53
2022-09-23T02:22:43.578Z,11.63
2022-09-23T02:25:36.337Z,12.47
2022-09-23T02:28:30.869Z,10.00
2022-09-23T02:31:27.752Z,10.10
2022-09-23T02:34:21.911Z,9.33
2022-09-23T02:37:16.650Z,9.37
2022-09-23T02:40:14.398Z,9.30
2022-09-23T02:43:09.132Z,12.17
2022-09-23T02:45:56.211Z,11.20
2022-09-23T02:48:47.526Z,13.17
2022-09-23T02:51:37.851Z,7.97
2022-09-23T02:54:29.446Z,9.03
2022-09-23T02:57:17.839Z,10.33
2022-09-23T03:00:06.354Z,10.13
2022-09-23T03:03:20.299Z,9.60
2022-09-23T03:06:15.971Z,10.60
2022-09-23T03:09:10.012Z,9.83
2022-09-23T03:12:06.405Z,8.97
2022-09-23T03:15:01.398Z,10.43
2022-09-23T03:17:55.321Z,8.90
2022-09-23T03:20:49.498Z,8.17
2022-09-23T03:23:39.359Z,9.00
2022-09-23T03:26:32.355Z,8.20
2022-09-23T03:29:20.298Z,9.63
2022-09-23T03:32:09.094Z,7.17
2022-09-23T03:34:58.537Z,10.47
2022-09-23T03:37:53.782Z,9.30
2022-09-23T03:40:44.480Z,9.53
2022-09-23T03:43:36.580Z,9.13
2022-09-23T03:46:27.476Z,7.30
2022-09-23T03:49:19.074Z,7.23
2022-09-23T03:52:06.670Z,9.40
2022-09-23T03:54:54.819Z,7.87
2022-09-23T03:57:41.941Z,11.13
2022-09-23T04:00:29.137Z,9.17
2022-09-23T04:03:17.025Z,9.77
2022-09-23T04:06:06.230Z,8.33
2022-09-23T04:08:53.821Z,10.53
2022-09-23T04:11:40.802Z,9.87
2022-09-23T04:14:28.346Z,9.37
2022-09-23T04:17:15.666Z,9.53
2022-09-23T04:20:03.141Z,8.20
2022-09-23T04:22:51.439Z,10.50
2022-09-23T04:25:45.743Z,11.50
2022-09-23T04:28:33.163Z,8.50
2022-09-23T04:31:20.370Z,12.23
2022-09-23T04:34:07.922Z,9.13
2022-09-23T04:36:55.129Z,7.00
2022-09-23T04:39:43.534Z,7.13
2022-09-23T04:42:31.125Z,7.47
2022-09-23T04:45:18.458Z,8.60
2022-09-23T04:48:05.489Z,9.73
2022-09-23T04:50:52.692Z,11.27
2022-09-23T04:53:42.481Z,10.87
2022-09-23T04:56:33.569Z,8.87
2022-09-23T04:59:20.891Z,7.33
2022-09-23T05:02:08.399Z,10.43
2022-09-23T05:04:55.643Z,11.13
2022-09-23T05:07:43.026Z,7.80
2022-09-23T05:10:31.132Z,9.53
2022-09-23T05:13:19.595Z,8.47
2022-09-23T05:16:12.035Z,10.30
2022-09-23T05:18:59.423Z,8.83
2022-09-23T05:21:46.749Z,8.07
2022-09-23T05:24:33.867Z,8.27
2022-09-23T05:27:21.571Z,12.47
2022-09-23T05:30:11.634Z,8.37
2022-09-23T05:32:59.023Z,9.33
2022-09-23T05:35:48.183Z,8.40
2022-09-23T05:38:35.860Z,11.40
2022-09-23T05:41:24.022Z,9.97
2022-09-23T05:44:11.739Z,9.97
2022-09-23T05:47:00.343Z,11.13
2022-09-23T05:49:59.669Z,10.77
2022-09-23T05:52:47.362Z,8.07
2022-09-23T05:55:34.454Z,10.53
2022-09-23T05:58:21.685Z,11.60
2022-09-23T06:01:13.228Z,7.93
2022-09-23T06:04:03.056Z,7.30
2022-09-23T06:06:50.338Z,9.33
2022-09-23T06:09:37.437Z,7.20
2022-09-23T06:12:25.062Z,6.73
2022-09-23T06:15:13.067Z,7.40
2022-09-23T06:18:00.307Z,6.10
2022-09-23T06:20:48.959Z,6.23
2022-09-23T06:23:39.603Z,5.07
2022-09-23T06:26:33.884Z,5.05
2022-09-23T06:29:20.937Z,4.55
2022-09-23T06:32:08.177Z,7.80
2022-09-23T06:34:56.629Z,4.47
2022-09-23T06:37:44.983Z,7.00
2022-09-23T06:40:32.526Z,6.28
2022-09-23T06:43:19.999Z,5.43
2022-09-23T06:46:08.266Z,6.03
2022-09-23T06:48:55.150Z,5.32
2022-09-23T06:51:42.638Z,5.70
2022-09-23T06:54:31.602Z,4.43
2022-09-23T06:57:19.139Z,4.15
2022-09-23T07:00:07.442Z,3.45
2022-09-23T07:02:55.722Z,3.25
2022-09-23T07:05:42.761Z,4.53
2022-09-23T07:08:31.238Z,4.25
2022-09-23T07:11:22.470Z,3.47
2022-09-23T07:14:09.332Z,3.78
2022-09-23T07:16:56.725Z,3.03
2022-09-23T07:19:43.911Z,5.22
2022-09-23T07:22:31.043Z,4.20
2022-09-23T07:25:18.688Z,3.72
2022-09-23T07:28:07.804Z,4.25
2022-09-23T07:31:00.399Z,3.25
2022-09-23T07:33:48.258Z,2.95
2022-09-23T07:36:37.283Z,2.78
2022-09-23T07:39:24.499Z,2.63
2022-09-23T07:42:13.194Z,2.45
2022-09-23T07:45:02.693Z,2.80
2022-09-23T07:47:50.345Z,2.90
2022-09-23T07:50:39.472Z,2.97
2022-09-23T07:53:26.632Z,3.67
2022-09-23T07:56:13.874Z,3.13
2022-09-23T07:59:03.639Z,2.72
2022-09-23T08:01:54.057Z,3.00
2022-09-23T08:04:41.027Z,3.08
2022-09-23T08:07:28.032Z,2.63
2022-09-23T08:10:19.052Z,2.70
2022-09-23T08:13:06.078Z,3.10
2022-09-23T08:15:55.481Z,2.90
2022-09-23T08:18:46.977Z,2.97
2022-09-23T08:21:34.740Z,2.80
2022-09-23T08:24:24.105Z,2.63
2022-09-23T08:27:12.647Z,2.90
2022-09-23T08:29:59.647Z,3.30
2022-09-23T08:32:50.568Z,3.00
2022-09-23T08:35:39.517Z,2.60
2022-09-23T08:38:26.959Z,2.78
2022-09-23T08:41:22.412Z,3.22
2022-09-23T08:44:15.167Z,2.58
2022-09-23T08:47:11.969Z,3.28
2022-09-23T08:50:03.903Z,2.47
2022-09-23T08:52:55.124Z,2.38
2022-09-23T08:55:47.359Z,2.97
2022-09-23T08:58:54.503Z,2.65
2022-09-23T09:01:44.965Z,2.53
2022-09-23T09:04:42.899Z,2.78
2022-09-23T09:07:37.646Z,4.78
2022-09-23T09:10:30.834Z,3.67
2022-09-23T09:13:29.375Z,2.10
2022-09-23T09:16:55.393Z,2.75
2022-09-23T09:19:55.229Z,2.15
2022-09-23T09:22:50.690Z,2.50
2022-09-23T09:25:44.970Z,2.53
2022-09-23T09:28:39.694Z,2.17
2022-09-23T09:31:33.197Z,2.33
2022-09-23T09:34:29.727Z,2.45
2022-09-23T09:37:24.102Z,2.75
2022-09-23T09:40:13.532Z,2.28
2022-09-23T09:43:04.597Z,4.50
2022-09-23T09:46:04.906Z,2.90
2022-09-23T09:48:57.033Z,1.88
2022-09-23T09:51:43.977Z,1.70
2022-09-23T09:54:31.141Z,1.95
2022-09-23T09:57:36.085Z,2.97
2022-09-23T10:00:42.779Z,2.85
2022-09-23T10:03:38.549Z,2.10
2022-09-23T10:06:28.064Z,1.88
2022-09-23T10:09:19.455Z,1.55
2022-09-23T10:12:15.469Z,1.20
2022-09-23T10:15:02.944Z,1.23
2022-09-23T10:17:52.360Z,1.73
2022-09-23T10:20:40.038Z,2.35
2022-09-23T10:23:29.765Z,1.60
2022-09-23T10:26:18.388Z,2.20
2022-09-23T10:29:23.060Z,1.70
2022-09-23T10:32:25.549Z,1.80
2022-09-23T10:35:16.755Z,1.58
2022-09-23T10:38:03.944Z,1.35
2022-09-23T10:44:25.750Z,1.40
2022-09-23T10:47:21.732Z,2.03
2022-09-23T10:50:23.527Z,1.27
2022-09-23T10:53:19.483Z,2.53
2022-09-23T10:56:17.278Z,1.52
2022-09-23T10:59:48.230Z,1.55
2022-09-23T11:02:56.991Z,1.60
2022-09-23T11:05:51.388Z,1.30
2022-09-23T11:08:53.637Z,1.48
2022-09-23T11:11:52.490Z,1.40
2022-09-23T11:14:53.448Z,1.25
2022-09-23T11:18:09.148Z,1.92
2022-09-23T11:21:07.149Z,1.33
2022-09-23T11:24:04.331Z,2.50
2022-09-23T11:27:03.792Z,4.20
2022-09-23T11:30:06.614Z,1.50
2022-09-23T11:33:13.402Z,1.27
2022-09-23T11:36:06.706Z,1.95
2022-09-23T11:38:55.823Z,1.65
2022-09-23T11:41:45.392Z,1.35
2022-09-23T11:44:37.962Z,1.30
2022-09-23T11:47:29.486Z,1.30
2022-09-23T11:50:20.251Z,2.95
2022-09-23T11:53:16.583Z,1.55
2022-09-23T11:56:08.656Z,1.35
2022-09-23T11:59:05.462Z,3.70
2022-09-23T12:02:00.059Z,1.40
2022-09-23T12:04:58.765Z,1.58
2022-09-23T12:07:56.577Z,1.10
2022-09-23T12:10:52.891Z,1.20
2022-09-23T12:13:48.545Z,1.38
2022-09-23T12:16:55.776Z,2.22
2022-09-23T12:20:09.234Z,1.67
2022-09-23T12:23:07.405Z,1.40
2022-09-23T12:26:00.604Z,1.40
2022-09-23T12:28:50.820Z,1.27
2022-09-23T12:31:42.034Z,1.27
2022-09-23T12:34:38.499Z,0.98
2022-09-23T12:37:29.247Z,0.90
2022-09-23T12:40:22.018Z,2.25
2022-09-23T12:43:17.645Z,1.25
2022-09-23T12:46:23.393Z,1.40
2022-09-23T12:49:25.886Z,1.63
2022-09-23T12:52:16.011Z,1.48
2022-09-23T12:55:42.283Z,1.33
2022-09-23T12:59:11.409Z,1.65
2022-09-23T13:02:10.654Z,1.50
2022-09-23T13:05:21.790Z,1.27
2022-09-23T13:08:17.798Z,1.08
2022-09-23T13:11:08.797Z,1.33
2022-09-23T13:13:57.360Z,1.40
2022-09-23T13:16:47.215Z,1.60
2022-09-23T13:19:46.346Z,1.05
2022-09-23T13:22:43.125Z,1.83
2022-09-23T13:25:32.484Z,1.30
2022-09-23T13:28:29.627Z,1.67
2022-09-23T13:31:21.040Z,1.10
2022-09-23T13:34:13.944Z,1.33
2022-09-23T13:37:22.035Z,0.98
2022-09-23T13:40:21.504Z,1.88
2022-09-23T13:43:20.157Z,0.95
2022-09-23T13:46:13.319Z,1.95
2022-09-23T13:49:00.822Z,1.25
2022-09-23T13:51:49.473Z,1.08
2022-09-23T13:54:49.719Z,1.30
2022-09-23T13:57:37.507Z,1.80
2022-09-23T14:00:25.637Z,1.00
2022-09-23T14:03:37.221Z,1.00
2022-09-23T14:06:24.627Z,1.00
2022-09-23T14:09:14.581Z,1.10
2022-09-23T14:12:05.648Z,1.27
2022-09-23T14:14:54.018Z,1.10
2022-09-23T14:17:41.451Z,1.00
2022-09-23T14:20:28.792Z,1.25
2022-09-23T14:23:16.415Z,1.10
2022-09-23T14:26:05.042Z,1.20
2022-09-23T14:28:52.882Z,1.20
2022-09-23T14:31:40.660Z,2.55
2022-09-23T14:34:46.392Z,0.80
2022-09-23T14:37:58.391Z,0.95
2022-09-23T14:40:52.935Z,1.00
2022-09-23T14:43:41.725Z,1.00
2022-09-23T14:46:32.821Z,1.02
2022-09-23T14:49:19.887Z,0.90
2022-09-23T14:52:07.923Z,5.65
2022-09-23T14:54:55.626Z,1.23
2022-09-23T14:57:43.894Z,1.00
2022-09-23T15:00:32.651Z,4.07
2022-09-23T15:03:21.029Z,1.30
2022-09-23T15:06:09.871Z,1.85
2022-09-23T15:08:57.210Z,1.00
2022-09-23T15:11:44.313Z,1.98
2022-09-23T15:14:40.821Z,1.02
2022-09-23T15:17:33.869Z,0.63
2022-09-23T15:20:24.270Z,1.10
2022-09-23T15:23:33.729Z,0.80
2022-09-23T15:26:22.992Z,1.75
2022-09-23T15:29:10.718Z,1.13
2022-09-23T15:31:58.332Z,1.23
2022-09-23T15:34:49.012Z,1.15
2022-09-23T15:37:36.508Z,1.23
2022-09-23T15:40:25.543Z,2.78
2022-09-23T15:43:21.139Z,0.95
2022-09-23T15:46:14.790Z,1.00
2022-09-23T15:49:04.695Z,0.90
2022-09-23T15:51:53.288Z,2.47
2022-09-23T15:54:40.617Z,1.17
2022-09-23T15:57:27.857Z,1.48
2022-09-23T16:00:15.858Z,1.67
2022-09-23T16:03:04.222Z,2.65
2022-09-23T16:05:51.491Z,1.67
2022-09-23T16:08:42.196Z,2.05
2022-09-23T16:11:31.754Z,1.50
2022-09-23T16:14:19.767Z,1.58
2022-09-23T16:17:07.685Z,2.78
2022-09-23T16:19:54.787Z,2.25
2022-09-23T16:22:42.155Z,1.40
2022-09-23T16:25:35.948Z,1.75
2022-09-23T16:28:23.342Z,2.08
2022-09-23T16:31:11.172Z,2.75
2022-09-23T16:34:02.058Z,1.85
2022-09-23T16:36:49.222Z,2.35
2022-09-23T16:39:36.775Z,2.50
2022-09-23T16:42:25.059Z,2.33
2022-09-23T16:45:13.190Z,2.50
2022-09-23T16:48:00.589Z,3.53
2022-09-23T16:50:47.933Z,3.60
2022-09-23T16:53:36.258Z,6.15
2022-09-23T16:56:28.387Z,3.50
2022-09-23T16:59:17.657Z,3.90
2022-09-23T17:02:24.585Z,8.75
2022-09-23T17:05:18.427Z,5.22
2022-09-23T17:08:07.598Z,3.33
2022-09-23T17:10:59.477Z,3.17
2022-09-23T17:13:47.453Z,2.65
2022-09-23T17:16:36.315Z,3.05
2022-09-23T17:19:23.736Z,3.90
2022-09-23T17:22:11.121Z,3.60
2022-09-23T17:24:58.875Z,3.65
2022-09-23T17:27:46.030Z,10.07
2022-09-23T17:30:32.945Z,5.55
2022-09-23T17:33:22.309Z,5.93
2022-09-23T17:36:10.942Z,5.72
2022-09-23T17:38:57.927Z,7.78
2022-09-23T17:41:45.318Z,5.38
2022-09-23T17:44:33.840Z,8.32
2022-09-23T17:47:20.938Z,4.90
2022-09-23T17:50:10.278Z,6.88
2022-09-23T17:52:58.905Z,10.65
2022-09-23T17:55:55.638Z,9.43
2022-09-23T17:58:43.183Z,12.68
2022-09-23T18:01:30.816Z,12.55
2022-09-23T18:04:18.007Z,16.52
2022-09-23T18:07:06.663Z,13.10
2022-09-23T18:09:53.623Z,14.10
2022-09-23T18:12:40.764Z,12.98
2022-09-23T18:15:28.099Z,13.07
2022-09-23T18:18:15.277Z,10.27
2022-09-23T18:21:03.141Z,12.90
2022-09-23T18:23:51.913Z,15.43
2022-09-23T18:26:39.165Z,14.13
2022-09-23T18:29:26.390Z,14.82
2022-09-23T18:32:14.398Z,14.13
2022-09-23T18:35:01.732Z,13.98
2022-09-23T18:37:50.351Z,19.98
2022-09-23T18:40:38.924Z,17.13
2022-09-23T18:43:32.729Z,22.98
2022-09-23T18:46:23.326Z,20.95
2022-09-23T18:49:27.829Z,19.88
2022-09-23T18:52:15.802Z,18.83
2022-09-23T18:55:03.290Z,20.33
2022-09-23T18:57:51.824Z,16.40
2022-09-23T19:00:39.567Z,13.07
2022-09-23T19:03:26.693Z,13.45
2022-09-23T19:06:20.510Z,11.88
2022-09-23T19:09:08.854Z,12.13
2022-09-23T19:11:56.395Z,11.98
2022-09-23T19:14:44.847Z,11.00
2022-09-23T19:17:32.437Z,10.00
2022-09-23T19:20:20.772Z,10.65
2022-09-23T19:23:08.034Z,10.55
2022-09-23T19:25:55.595Z,9.90
2022-09-23T19:28:49.775Z,7.60
2022-09-23T19:31:40.573Z,10.82
2022-09-23T19:34:29.264Z,8.63
2022-09-23T19:37:16.474Z,7.72
2022-09-23T19:40:03.853Z,7.70
2022-09-23T19:42:53.270Z,7.55
2022-09-23T19:45:42.837Z,6.32
2022-09-23T19:48:31.620Z,6.28
2022-09-23T19:51:19.209Z,6.57
2022-09-23T19:54:07.922Z,8.77
2022-09-23T19:56:55.033Z,7.85
2022-09-23T19:59:42.056Z,6.68
2022-09-23T20:02:29.380Z,7.78
2022-09-23T20:05:20.308Z,9.35
2022-09-23T20:08:07.363Z,7.20
2022-09-23T20:10:54.782Z,8.20
2022-09-23T20:13:44.374Z,8.15
2022-09-23T20:16:34.148Z,7.47
2022-09-23T20:19:21.712Z,8.85
2022-09-23T20:22:33.128Z,8.90
2022-09-23T20:25:20.604Z,8.52
2022-09-23T20:28:06.630Z,8.00
2022-09-23T20:30:59.152Z,7.60
2022-09-23T20:33:46.439Z,6.95
2022-09-23T20:36:35.316Z,9.87
2022-09-23T20:39:23.730Z,9.30
2022-09-23T20:42:10.817Z,9.30
2022-09-23T20:44:58.872Z,8.03
2022-09-23T20:47:46.299Z,6.87
2022-09-23T20:50:33.658Z,8.00
2022-09-23T20:53:22.150Z,8.13
2022-09-23T20:56:10.459Z,9.67
2022-09-23T20:59:00.458Z,8.32
2022-09-23T21:01:47.939Z,10.33
2022-09-23T21:04:35.694Z,11.20
2022-09-23T21:07:23.779Z,10.03
2022-09-23T21:10:11.467Z,8.43
2022-09-23T21:13:00.479Z,11.87
2022-09-23T21:15:47.770Z,9.53
2022-09-23T21:18:37.111Z,10.07
2022-09-23T21:21:24.669Z,11.33
2022-09-23T21:24:43.804Z,11.60
2022-09-23T21:27:19.010Z,9.47
2022-09-23T21:30:09.072Z,15.70
2022-09-23T21:32:56.553Z,11.57
2022-09-23T21:35:43.941Z,13.37
2022-09-23T21:38:31.599Z,11.63
2022-09-23T21:41:18.866Z,11.43
2022-09-23T21:44:06.653Z,11.57
2022-09-23T21:46:57.428Z,10.73
2022-09-23T21:49:50.505Z,9.93
2022-09-23T21:52:38.991Z,9.13
2022-09-23T21:55:27.765Z,9.43
2022-09-23T21:58:14.802Z,9.63
2022-09-23T22:01:03.059Z,10.13
2022-09-23T22:03:53.425Z,9.83
2022-09-23T22:06:41.048Z,9.17
2022-09-23T22:09:28.147Z,8.87
2022-09-23T22:12:15.243Z,9.63
2022-09-23T22:15:02.721Z,10.90
2022-09-23T22:17:49.991Z,8.90
2022-09-23T22:20:39.030Z,6.93
2022-09-23T22:23:26.595Z,10.27
2022-09-23T22:26:13.725Z,7.30
2022-09-23T22:29:19.022Z,7.40
2022-09-23T22:32:28.649Z,7.70
2022-09-23T22:35:17.764Z,7.80
2022-09-23T22:38:06.248Z,6.43
2022-09-23T22:40:54.151Z,9.57
2022-09-23T22:43:41.170Z,7.67
2022-09-23T22:46:28.703Z,7.57
2022-09-23T22:49:19.040Z,8.23
2022-09-23T22:52:09.065Z,8.63
2022-09-23T22:54:57.786Z,6.33
2022-09-23T22:57:45.301Z,6.47
2022-09-23T23:00:32.492Z,7.23
2022-09-23T23:03:20.384Z,6.83
2022-09-23T23:06:09.803Z,9.27
2022-09-23T23:09:01.926Z,7.43
2022-09-23T23:11:50.462Z,6.87
2022-09-23T23:14:38.039Z,7.60
2022-09-23T23:17:25.035Z,7.87
2022-09-23T23:20:12.517Z,10.30
2022-09-23T23:23:02.185Z,5.80
2022-09-23T23:25:49.500Z,6.17
2022-09-23T23:28:37.847Z,6.87
2022-09-23T23:31:27.191Z,6.63
2022-09-23T23:34:16.229Z,6.23
2022-09-23T23:37:03.253Z,5.93
2022-09-23T23:39:51.360Z,8.43
2022-09-23T23:42:38.339Z,6.23
2022-09-23T23:45:26.709Z,6.37
2022-09-23T23:48:14.411Z,6.87
2022-09-23T23:51:02.514Z,7.27
2022-09-23T23:53:49.746Z,8.00
2022-09-23T23:56:37.194Z,6.33
2022-09-23T23:59:24.557Z,6.85
